Time;durP1;ratioP1;P1;durP2;ratioP2;P2;SDS_P1;SDS_P2;PMS_P1;PMS_P2;Temp;Humidity;BMP_temperature;BMP_pressure;BME280_temperature;BME280_humidity;BME280_pressure;Samples;Min_cycle;Max_cycle;Signal;HPM_P1;HPM_P2
2021/04/25 00:01:55;;;;;;;1.40;1.30;;;23.40;26.80;;;;;;5031448;28;20225;-58
2021/04/25 00:04:21;;;;;;;1.73;1.53;;;23.40;27.00;;;;;;5030248;28;20589;-58
2021/04/25 00:06:47;;;;;;;1.65;1.52;;;23.40;26.90;;;;;;5030650;28;20218;-58
2021/04/25 00:09:13;;;;;;;2.17;1.55;;;23.40;26.90;;;;;;5030873;28;20198;-58
2021/04/25 00:11:39;;;;;;;1.63;1.53;;;23.40;26.90;;;;;;5029760;28;20577;-58
2021/04/25 00:14:05;;;;;;;1.90;1.70;;;23.40;27.00;;;;;;5029490;28;20225;-59
2021/04/25 00:16:31;;;;;;;2.07;1.50;;;23.40;27.00;;;;;;5027625;28;20622;-59
2021/04/25 00:18:58;;;;;;;1.60;1.50;;;23.40;27.00;;;;;;5026141;28;20210;-58
2021/04/25 00:21:24;;;;;;;1.50;1.40;;;23.40;27.00;;;;;;5030120;28;20242;-58
2021/04/25 00:23:50;;;;;;;2.17;1.67;;;23.40;26.90;;;;;;5031449;28;20300;-58
2021/04/25 00:26:16;;;;;;;1.40;1.30;;;23.40;27.00;;;;;;5028752;28;20569;-58
2021/04/25 00:28:42;;;;;;;1.60;1.50;;;23.30;26.90;;;;;;5030513;28;20289;-58
2021/04/25 00:31:08;;;;;;;1.40;1.30;;;23.40;27.00;;;;;;5028571;28;20288;-58
2021/04/25 00:33:34;;;;;;;1.60;1.50;;;23.40;27.00;;;;;;5030452;28;20226;-58
2021/04/25 00:36:00;;;;;;;1.38;1.27;;;23.40;27.00;;;;;;5029895;28;20206;-58
2021/04/25 00:38:26;;;;;;;1.60;1.50;;;23.40;27.00;;;;;;5030153;28;20297;-58
2021/04/25 00:40:52;;;;;;;1.40;1.30;;;23.30;27.00;;;;;;5029352;28;20198;-58
2021/04/25 00:43:18;;;;;;;1.63;1.50;;;23.40;27.00;;;;;;5030699;28;20226;-58
2021/04/25 00:45:44;;;;;;;1.52;1.30;;;23.40;27.00;;;;;;5029255;28;20276;-59
2021/04/25 00:48:10;;;;;;;1.42;1.30;;;23.40;27.10;;;;;;5028416;28;20209;-59
2021/04/25 00:50:36;;;;;;;1.73;1.58;;;23.40;27.10;;;;;;5029271;28;20202;-58
2021/04/25 00:53:02;;;;;;;1.73;1.63;;;23.40;27.10;;;;;;5029922;28;20252;-56
2021/04/25 00:55:28;;;;;;;1.40;1.30;;;23.40;27.10;;;;;;5031329;28;20661;-56
2021/04/25 00:57:54;;;;;;;2.38;1.77;;;23.40;27.00;;;;;;5029559;28;20243;-56
2021/04/25 01:00:20;;;;;;;1.50;1.40;;;23.40;27.00;;;;;;5028961;28;20213;-56
2021/04/25 01:02:46;;;;;;;1.50;1.40;;;23.40;27.10;;;;;;5030326;28;20720;-56
2021/04/25 01:05:12;;;;;;;1.63;1.48;;;23.40;27.20;;;;;;5029662;28;20202;-56
2021/04/25 01:07:38;;;;;;;1.70;1.60;;;23.30;27.00;;;;;;5029553;28;20210;-56
2021/04/25 01:10:03;;;;;;;2.00;1.40;;;23.40;27.00;;;;;;5029125;28;20202;-56
2021/04/25 01:12:29;;;;;;;1.70;1.13;;;23.40;27.10;;;;;;5030513;28;20654;-56
2021/04/25 01:14:55;;;;;;;1.40;1.30;;;23.40;27.10;;;;;;5026639;28;20222;-57
2021/04/25 01:17:21;;;;;;;2.05;1.42;;;23.40;27.00;;;;;;5027859;28;20283;-56
2021/04/25 01:19:47;;;;;;;1.57;1.47;;;23.40;27.70;;;;;;5028256;28;20568;-56
2021/04/25 01:22:13;;;;;;;1.53;1.43;;;23.40;27.10;;;;;;5030563;28;20226;-57
2021/04/25 01:24:39;;;;;;;1.40;1.30;;;23.30;27.10;;;;;;5027993;28;20214;-57
2021/04/25 01:27:05;;;;;;;1.40;1.30;;;23.40;27.10;;;;;;5025994;28;20211;-56
2021/04/25 01:29:31;;;;;;;1.30;1.20;;;23.40;27.10;;;;;;5029233;28;20199;-58
2021/04/25 01:31:57;;;;;;;1.33;1.23;;;23.40;27.10;;;;;;5029582;28;20206;-58
2021/04/25 01:34:23;;;;;;;1.85;1.75;;;23.40;27.10;;;;;;5028871;28;20245;-58
2021/04/25 01:36:51;;;;;;;1.23;1.23;;;23.40;27.20;;;;;;5028457;28;20206;-58
2021/04/25 01:39:17;;;;;;;1.50;1.40;;;23.40;27.10;;;;;;5029390;28;20612;-58
2021/04/25 01:41:43;;;;;;;1.67;1.48;;;23.30;27.20;;;;;;5028916;28;20209;-58
2021/04/25 01:44:09;;;;;;;1.50;1.40;;;23.40;27.20;;;;;;5029629;28;20223;-58
2021/04/25 01:46:35;;;;;;;1.20;1.17;;;23.30;27.10;;;;;;5028834;28;20209;-58
2021/04/25 01:49:01;;;;;;;1.57;1.47;;;23.40;27.20;;;;;;5028527;28;20213;-58
2021/04/25 01:51:26;;;;;;;1.50;1.40;;;23.30;27.10;;;;;;5030039;28;20209;-58
2021/04/25 01:53:53;;;;;;;1.47;1.37;;;23.40;27.20;;;;;;5033659;28;20296;-57
2021/04/25 01:56:19;;;;;;;1.33;1.23;;;23.40;27.30;;;;;;5033325;28;20203;-56
2021/04/25 01:58:45;;;;;;;1.50;1.40;;;23.30;27.10;;;;;;5032539;28;20271;-56
2021/04/25 02:01:10;;;;;;;1.65;1.55;;;23.30;27.10;;;;;;5032436;28;20207;-56
2021/04/25 02:03:36;;;;;;;1.55;1.42;;;23.40;27.20;;;;;;5032576;28;20241;-56
2021/04/25 02:06:02;;;;;;;1.20;1.10;;;23.30;27.10;;;;;;5032916;28;20201;-56
2021/04/25 02:08:28;;;;;;;1.70;1.42;;;23.40;27.20;;;;;;5033182;28;20209;-56
2021/04/25 02:10:54;;;;;;;2.63;1.48;;;23.30;27.20;;;;;;5032158;28;20199;-56
2021/04/25 02:13:20;;;;;;;1.33;1.23;;;23.40;27.30;;;;;;5031279;28;20225;-56
2021/04/25 02:15:46;;;;;;;1.60;1.50;;;23.30;27.20;;;;;;5031529;28;20565;-56
2021/04/25 02:18:12;;;;;;;1.58;1.40;;;23.30;27.20;;;;;;5024654;28;20214;-57
2021/04/25 02:20:38;;;;;;;1.45;1.35;;;23.30;27.20;;;;;;5020701;28;20639;-57
2021/04/25 02:23:04;;;;;;;1.50;1.40;;;23.30;27.20;;;;;;5033238;28;20241;-57
2021/04/25 02:25:30;;;;;;;1.42;1.33;;;23.40;27.30;;;;;;5032134;28;20206;-57
2021/04/25 02:27:57;;;;;;;1.58;1.48;;;23.30;27.20;;;;;;5032868;28;20202;-57
2021/04/25 02:30:23;;;;;;;1.63;1.52;;;23.40;27.30;;;;;;5032094;28;20210;-57
2021/04/25 02:32:49;;;;;;;1.55;1.45;;;23.30;27.20;;;;;;5032770;28;20608;-57
2021/04/25 02:35:15;;;;;;;1.47;1.30;;;23.30;27.20;;;;;;5032209;28;20203;-57
2021/04/25 02:37:41;;;;;;;1.50;1.20;;;23.40;27.30;;;;;;5032867;28;20209;-57
2021/04/25 02:40:07;;;;;;;1.63;1.50;;;23.30;27.20;;;;;;5032236;28;20206;-58
2021/04/25 02:42:33;;;;;;;1.40;1.30;;;23.30;27.20;;;;;;5032761;28;20218;-57
2021/04/25 02:44:59;;;;;;;1.30;1.20;;;23.30;27.30;;;;;;5033640;28;20655;-57
2021/04/25 02:47:25;;;;;;;1.30;1.20;;;23.40;27.30;;;;;;5031368;28;20209;-57
2021/04/25 02:49:51;;;;;;;1.80;1.27;;;23.30;27.30;;;;;;5031984;28;20222;-57
2021/04/25 02:52:17;;;;;;;1.38;1.27;;;23.30;27.30;;;;;;5028325;28;20211;-57
2021/04/25 02:54:42;;;;;;;1.30;1.20;;;23.30;27.30;;;;;;5032359;28;20218;-57
2021/04/25 02:57:08;;;;;;;1.55;1.33;;;23.30;27.30;;;;;;5031069;28;20202;-56
2021/04/25 02:59:34;;;;;;;1.30;1.20;;;23.30;27.30;;;;;;5031951;28;20203;-57
2021/04/25 03:02:00;;;;;;;1.60;1.50;;;23.30;27.30;;;;;;5030639;28;20225;-57
2021/04/25 03:04:26;;;;;;;1.50;1.33;;;23.30;27.30;;;;;;5031796;28;20230;-57
2021/04/25 03:06:52;;;;;;;3.17;1.50;;;23.30;27.30;;;;;;5031100;28;20213;-57
2021/04/25 03:09:18;;;;;;;1.53;1.40;;;23.40;27.40;;;;;;5032333;28;20202;-57
2021/04/25 03:11:44;;;;;;;1.58;1.48;;;23.30;27.90;;;;;;5030335;28;20203;-57
2021/04/25 03:14:10;;;;;;;1.30;1.20;;;23.30;27.40;;;;;;5032100;28;20221;-57
2021/04/25 03:16:36;;;;;;;1.45;1.10;;;23.40;27.50;;;;;;5031515;28;20202;-57
2021/04/25 03:19:02;;;;;;;1.33;1.23;;;23.30;27.30;;;;;;5030683;28;20194;-57
2021/04/25 03:21:28;;;;;;;1.37;1.27;;;23.30;27.30;;;;;;5031983;28;20281;-57
2021/04/25 03:23:54;;;;;;;1.48;1.38;;;23.40;27.50;;;;;;5032024;28;20241;-57
2021/04/25 03:26:20;;;;;;;1.30;1.20;;;23.30;27.40;;;;;;5029945;28;20202;-57
2021/04/25 03:28:46;;;;;;;1.40;1.30;;;23.30;27.40;;;;;;5031398;28;20199;-57
2021/04/25 03:31:12;;;;;;;1.45;1.35;;;23.30;27.40;;;;;;5031116;28;20207;-57
2021/04/25 03:33:38;;;;;;;1.95;1.27;;;23.40;27.40;;;;;;5025636;28;20310;-57
2021/04/25 03:36:04;;;;;;;1.08;1.00;;;23.30;27.40;;;;;;5027108;28;20206;-57
2021/04/25 03:38:30;;;;;;;1.10;1.10;;;23.40;27.50;;;;;;5030401;28;20202;-57
2021/04/25 03:40:57;;;;;;;1.40;1.30;;;23.40;27.50;;;;;;5030108;28;20203;-57
2021/04/25 03:43:23;;;;;;;1.73;1.33;;;23.40;27.50;;;;;;5031656;28;20241;-57
2021/04/25 03:45:48;;;;;;;1.30;1.20;;;23.30;27.50;;;;;;5030456;28;20217;-57
2021/04/25 03:48:14;;;;;;;1.42;1.33;;;23.30;27.40;;;;;;5030701;28;20684;-57
2021/04/25 03:50:40;;;;;;;1.40;1.30;;;23.30;27.40;;;;;;5030218;28;20211;-57
2021/04/25 03:53:06;;;;;;;1.38;1.27;;;23.30;27.50;;;;;;5031439;28;20234;-57
2021/04/25 03:55:32;;;;;;;1.85;1.60;;;23.30;27.50;;;;;;5030351;28;20574;-57
2021/04/25 03:57:58;;;;;;;1.98;1.30;;;23.30;27.50;;;;;;5029855;28;20195;-58
2021/04/25 04:00:24;;;;;;;1.73;1.35;;;23.30;27.50;;;;;;5030350;28;20202;-57
2021/04/25 04:02:50;;;;;;;1.17;1.07;;;23.30;27.50;;;;;;5030467;28;20283;-57
2021/04/25 04:05:16;;;;;;;1.50;1.40;;;23.40;27.60;;;;;;5030968;28;20201;-57
2021/04/25 04:07:42;;;;;;;1.38;1.27;;;23.40;27.60;;;;;;5029763;28;20248;-57
2021/04/25 04:10:08;;;;;;;1.70;1.30;;;23.30;27.60;;;;;;5022792;28;20206;-57
2021/04/25 04:12:34;;;;;;;1.30;1.10;;;23.30;27.50;;;;;;5028042;28;20659;-57
2021/04/25 04:15:00;;;;;;;1.58;1.40;;;23.30;27.50;;;;;;5031046;28;20203;-57
2021/04/25 04:17:26;;;;;;;1.40;1.30;;;23.30;27.50;;;;;;5029555;28;20654;-57
2021/04/25 04:19:52;;;;;;;1.77;1.13;;;23.30;27.60;;;;;;5018667;28;20207;-58
2021/04/25 04:22:18;;;;;;;2.38;1.30;;;23.30;27.50;;;;;;5028462;28;20214;-57
2021/04/25 04:24:44;;;;;;;1.25;1.15;;;23.30;27.50;;;;;;5030898;28;20202;-57
2021/04/25 04:27:10;;;;;;;1.50;1.40;;;23.30;27.60;;;;;;5030488;28;20195;-57
2021/04/25 04:29:36;;;;;;;1.20;1.10;;;23.30;27.60;;;;;;5030284;28;20571;-57
2021/04/25 04:32:02;;;;;;;1.77;1.27;;;23.30;27.60;;;;;;5030086;28;20213;-57
2021/04/25 04:34:28;;;;;;;1.50;1.40;;;23.30;27.60;;;;;;5029040;28;20218;-57
2021/04/25 04:36:54;;;;;;;2.03;1.38;;;23.30;27.60;;;;;;5030276;28;20195;-57
2021/04/25 04:39:20;;;;;;;1.98;1.40;;;23.30;27.60;;;;;;5029922;28;20260;-58
2021/04/25 04:41:46;;;;;;;2.47;1.67;;;23.30;27.60;;;;;;5029263;28;20561;-57
2021/04/25 04:44:12;;;;;;;1.47;1.17;;;23.30;27.60;;;;;;5030842;28;20313;-57
2021/04/25 04:46:38;;;;;;;1.23;1.13;;;23.30;27.60;;;;;;5029288;28;20195;-57
2021/04/25 04:49:04;;;;;;;1.90;1.30;;;23.30;27.60;;;;;;5029186;28;20214;-57
2021/04/25 04:51:30;;;;;;;2.08;1.42;;;23.30;27.60;;;;;;5029326;28;20572;-57
2021/04/25 04:53:56;;;;;;;1.60;1.50;;;23.30;27.60;;;;;;5030204;28;20225;-57
2021/04/25 04:56:22;;;;;;;1.73;1.33;;;23.30;27.60;;;;;;5029574;28;20202;-57
2021/04/25 04:58:48;;;;;;;1.42;1.33;;;23.30;27.60;;;;;;5029142;28;20571;-57
2021/04/25 05:01:14;;;;;;;2.47;1.30;;;23.30;27.60;;;;;;5029690;28;20271;-57
2021/04/25 05:03:40;;;;;;;2.33;1.15;;;23.30;27.60;;;;;;5030621;28;20230;-57
2021/04/25 05:06:05;;;;;;;1.60;1.48;;;23.30;27.60;;;;;;5028759;28;20209;-58
2021/04/25 05:08:31;;;;;;;1.30;1.20;;;23.30;28.20;;;;;;5028818;28;20191;-58
2021/04/25 05:10:57;;;;;;;1.45;1.27;;;23.40;27.70;;;;;;5030275;28;20697;-58
2021/04/25 05:13:23;;;;;;;1.30;1.20;;;23.30;27.60;;;;;;5030255;28;20264;-57
2021/04/25 05:15:49;;;;;;;1.30;1.20;;;23.30;27.60;;;;;;5026715;28;20209;-58
2021/04/25 05:18:15;;;;;;;1.85;1.27;;;23.40;27.70;;;;;;5029778;28;20225;-57
2021/04/25 05:20:41;;;;;;;2.90;1.47;;;23.30;27.60;;;;;;5028869;28;20203;-57
2021/04/25 05:23:07;;;;;;;1.60;1.50;;;23.40;27.70;;;;;;5029163;28;20325;-57
2021/04/25 05:25:33;;;;;;;1.35;1.25;;;23.40;27.80;;;;;;5030129;28;20518;-57
2021/04/25 05:27:59;;;;;;;1.45;1.35;;;23.40;27.80;;;;;;5033010;28;20209;-57
2021/04/25 05:30:25;;;;;;;1.50;1.40;;;23.40;27.80;;;;;;5032986;28;20659;-57
2021/04/25 05:32:51;;;;;;;1.38;1.27;;;23.40;27.80;;;;;;5033396;28;20215;-57
2021/04/25 05:35:17;;;;;;;2.08;1.58;;;23.40;27.80;;;;;;5033685;28;20209;-58
2021/04/25 05:37:43;;;;;;;1.85;1.50;;;23.30;27.80;;;;;;5032266;28;20566;-57
2021/04/25 05:40:09;;;;;;;1.45;1.35;;;23.40;27.90;;;;;;5033105;28;20202;-57
2021/04/25 05:42:35;;;;;;;1.67;1.58;;;23.40;28.00;;;;;;5034127;28;20237;-57
2021/04/25 05:45:01;;;;;;;1.65;1.50;;;23.40;27.80;;;;;;5033005;28;20202;-57
2021/04/25 05:47:27;;;;;;;1.45;1.30;;;23.40;27.80;;;;;;5033406;28;20290;-57
2021/04/25 05:49:53;;;;;;;1.40;1.30;;;23.40;27.90;;;;;;5032842;28;20202;-57
2021/04/25 05:52:19;;;;;;;1.38;1.27;;;23.40;28.00;;;;;;5033475;28;20241;-58
2021/04/25 05:54:45;;;;;;;1.95;1.58;;;23.40;28.00;;;;;;5033067;28;20202;-56
2021/04/25 05:57:11;;;;;;;1.65;1.30;;;23.40;27.90;;;;;;5033251;28;20206;-57
2021/04/25 05:59:37;;;;;;;1.65;1.55;;;23.40;27.90;;;;;;5033046;28;20203;-58
2021/04/25 06:02:03;;;;;;;1.52;1.30;;;23.40;27.90;;;;;;5032207;28;20205;-58
2021/04/25 06:04:29;;;;;;;1.85;1.25;;;23.40;27.90;;;;;;5032807;28;20649;-57
2021/04/25 06:06:54;;;;;;;1.38;1.25;;;23.40;28.00;;;;;;5032818;28;20190;-57
2021/04/25 06:09:20;;;;;;;1.65;1.42;;;23.40;27.90;;;;;;5032147;28;20608;-57
2021/04/25 06:11:46;;;;;;;1.95;1.20;;;23.40;27.90;;;;;;5032791;28;20203;-57
2021/04/25 06:14:12;;;;;;;1.55;1.30;;;23.40;27.90;;;;;;5032601;28;20237;-57
2021/04/25 06:16:38;;;;;;;2.35;1.52;;;23.40;27.90;;;;;;5032270;28;20206;-57
2021/04/25 06:19:04;;;;;;;2.13;1.40;;;23.40;27.90;;;;;;5030415;28;20318;-57
2021/04/25 06:21:30;;;;;;;1.40;1.30;;;23.40;27.90;;;;;;5026094;28;20238;-57
2021/04/25 06:23:56;;;;;;;1.80;1.70;;;23.40;28.00;;;;;;5032091;28;20253;-57
2021/04/25 06:26:22;;;;;;;1.63;1.52;;;23.40;28.00;;;;;;5032532;28;20224;-57
2021/04/25 06:28:48;;;;;;;1.83;1.50;;;23.40;27.90;;;;;;5031433;28;20199;-57
2021/04/25 06:31:14;;;;;;;2.25;1.23;;;23.40;28.00;;;;;;5031311;28;20213;-57
2021/04/25 06:33:40;;;;;;;1.58;1.20;;;23.30;27.90;;;;;;5032961;28;20234;-57
2021/04/25 06:36:06;;;;;;;1.58;1.40;;;23.40;28.20;;;;;;5032319;28;20210;-58
2021/04/25 06:38:32;;;;;;;3.95;1.50;;;23.40;28.30;;;;;;5026673;28;20252;-57
2021/04/25 06:40:58;;;;;;;3.88;1.60;;;23.40;28.30;;;;;;5031418;28;20209;-57
2021/04/25 06:43:24;;;;;;;2.65;1.58;;;23.40;28.50;;;;;;5029997;28;20571;-56
2021/04/25 06:45:50;;;;;;;2.15;1.20;;;23.40;28.30;;;;;;5031334;28;20199;-57
2021/04/25 06:48:16;;;;;;;2.15;1.50;;;23.40;28.80;;;;;;5031697;28;20195;-57
2021/04/25 06:50:42;;;;;;;2.08;1.70;;;23.40;28.30;;;;;;5031691;28;20206;-58
2021/04/25 06:53:08;;;;;;;2.85;1.50;;;23.40;28.30;;;;;;5024547;28;20249;-55
2021/04/25 06:55:34;;;;;;;4.05;2.08;;;23.40;28.30;;;;;;5030182;28;20647;-57
2021/04/25 06:58:00;;;;;;;10.43;2.85;;;23.40;28.40;;;;;;5032050;28;20272;-62
2021/04/25 07:00:26;;;;;;;6.00;2.22;;;23.50;28.90;;;;;;5031407;28;20205;-60
2021/04/25 07:02:52;;;;;;;7.57;6.85;;;23.50;28.70;;;;;;5031123;28;20593;-61
2021/04/25 07:05:18;;;;;;;11.02;9.57;;;22.80;22.80;;;;;;5027010;28;20206;-58
2021/04/25 07:07:44;;;;;;;11.57;10.37;;;17.00;25.20;;;;;;5025111;28;20504;-58
2021/04/25 07:10:10;;;;;;;10.13;8.13;;;17.00;25.50;;;;;;5031010;28;20199;-59
2021/04/25 07:12:36;;;;;;;8.27;6.60;;;18.50;26.30;;;;;;5030848;28;20699;-59
2021/04/25 07:15:02;;;;;;;7.37;6.33;;;20.10;25.90;;;;;;5030429;28;20221;-59
2021/04/25 07:17:28;;;;;;;8.23;5.10;;;21.10;25.20;;;;;;5029251;28;20205;-59
2021/04/25 07:19:53;;;;;;;6.23;4.73;;;21.70;25.10;;;;;;5016324;28;20211;-59
2021/04/25 07:22:20;;;;;;;6.80;4.83;;;22.00;25.00;;;;;;5023429;28;20229;-59
2021/04/25 07:24:46;;;;;;;5.90;4.57;;;22.30;25.10;;;;;;5030773;28;20306;-59
2021/04/25 07:27:12;;;;;;;4.53;4.10;;;22.50;25.20;;;;;;5030336;28;20983;-59
2021/04/25 07:29:38;;;;;;;4.50;4.10;;;22.60;25.30;;;;;;5030525;28;20208;-59
2021/04/25 07:32:04;;;;;;;3.87;3.30;;;22.70;25.50;;;;;;5030341;28;20221;-59
2021/04/25 07:34:30;;;;;;;5.40;3.87;;;22.80;25.60;;;;;;5031185;28;20204;-59
2021/04/25 07:36:56;;;;;;;3.77;3.47;;;22.90;25.80;;;;;;5030086;28;20248;-59
2021/04/25 07:39:22;;;;;;;5.10;3.40;;;22.90;26.00;;;;;;5030757;28;20197;-59
2021/04/25 07:41:47;;;;;;;3.60;3.30;;;23.00;26.10;;;;;;5031703;28;20643;-58
2021/04/25 07:44:13;;;;;;;3.63;3.10;;;23.00;26.20;;;;;;5030135;28;20231;-58
2021/04/25 07:46:39;;;;;;;4.57;3.23;;;23.00;26.30;;;;;;5028972;28;20199;-57
2021/04/25 07:49:05;;;;;;;3.90;3.27;;;23.10;26.40;;;;;;5026685;28;20209;-53
2021/04/25 07:51:31;;;;;;;3.50;3.20;;;23.10;26.60;;;;;;5028021;28;20708;-63
2021/04/25 07:53:59;;;;;;;4.00;3.30;;;23.10;27.10;;;;;;5027732;28;20226;-64
2021/04/25 07:56:25;;;;;;;3.33;2.87;;;23.20;27.20;;;;;;5030961;28;20198;-67
2021/04/25 07:58:51;;;;;;;2.90;2.70;;;23.20;27.20;;;;;;5030076;28;20213;-67
2021/04/25 08:01:17;;;;;;;3.58;2.45;;;23.20;27.20;;;;;;5030704;28;20206;-66
2021/04/25 08:03:43;;;;;;;3.30;3.05;;;23.20;27.40;;;;;;5022563;28;20233;-66
2021/04/25 08:06:09;;;;;;;4.68;3.13;;;23.20;27.20;;;;;;5026966;28;20213;-57
2021/04/25 08:08:35;;;;;;;3.47;2.90;;;23.20;27.30;;;;;;5027261;28;20553;-58
2021/04/25 08:11:01;;;;;;;3.60;2.63;;;23.20;27.40;;;;;;5029854;28;20209;-58
2021/04/25 08:13:27;;;;;;;3.28;2.53;;;23.20;27.40;;;;;;5028528;28;20233;-58
2021/04/25 08:15:53;;;;;;;3.13;2.30;;;23.20;27.70;;;;;;5030746;28;20203;-59
2021/04/25 08:18:19;;;;;;;3.65;2.30;;;23.20;27.90;;;;;;5024552;28;20308;-58
2021/04/25 08:20:45;;;;;;;4.82;2.20;;;23.20;28.00;;;;;;5023204;28;20202;-58
2021/04/25 08:23:11;;;;;;;2.55;2.28;;;23.20;28.00;;;;;;5031061;28;20246;-58
2021/04/25 08:25:37;;;;;;;3.05;2.45;;;23.20;27.80;;;;;;5030750;28;20225;-58
2021/04/25 08:28:03;;;;;;;2.47;2.28;;;23.20;27.90;;;;;;5030586;28;20198;-58
2021/04/25 08:30:29;;;;;;;3.30;2.33;;;23.20;27.90;;;;;;5031412;28;20249;-58
2021/04/25 08:32:55;;;;;;;2.55;2.30;;;23.20;28.10;;;;;;5031086;28;20241;-58
2021/04/25 08:35:21;;;;;;;5.35;2.55;;;23.20;28.20;;;;;;5031062;28;20202;-58
2021/04/25 08:37:46;;;;;;;6.57;2.63;;;23.20;27.90;;;;;;5030109;28;20195;-58
2021/04/25 08:40:13;;;;;;;2.83;2.63;;;23.20;28.00;;;;;;5030973;28;20210;-58
2021/04/25 08:42:39;;;;;;;3.53;2.35;;;23.20;28.00;;;;;;5022977;28;20243;-57
2021/04/25 08:45:05;;;;;;;3.45;2.97;;;23.20;28.00;;;;;;5011008;28;20251;-57
2021/04/25 08:47:31;;;;;;;2.88;2.45;;;23.20;28.00;;;;;;5029668;28;20202;-58
2021/04/25 08:49:58;;;;;;;3.28;2.40;;;23.20;27.80;;;;;;5030440;28;20211;-57
2021/04/25 08:52:24;;;;;;;3.70;2.93;;;23.20;27.80;;;;;;5030597;28;20288;-57
2021/04/25 08:54:50;;;;;;;3.70;2.45;;;23.30;27.90;;;;;;5030695;28;20206;-57
2021/04/25 08:57:16;;;;;;;3.03;2.30;;;23.30;27.80;;;;;;5029958;28;20372;-57
2021/04/25 08:59:42;;;;;;;2.70;2.45;;;23.30;27.70;;;;;;5030351;28;20191;-57
2021/04/25 09:02:08;;;;;;;2.50;2.30;;;23.30;27.70;;;;;;5029578;28;20686;-57
2021/04/25 09:04:34;;;;;;;2.83;2.22;;;23.30;27.70;;;;;;5030664;28;20288;-57
2021/04/25 09:07:00;;;;;;;2.67;2.47;;;23.30;27.70;;;;;;5030081;28;20624;-57
2021/04/25 09:09:26;;;;;;;2.58;2.38;;;23.30;27.70;;;;;;5028830;28;20205;-57
2021/04/25 09:11:52;;;;;;;3.58;2.53;;;23.30;27.60;;;;;;5029030;28;20221;-57
2021/04/25 09:14:18;;;;;;;2.58;2.13;;;23.30;27.70;;;;;;5030648;28;20229;-58
2021/04/25 09:16:44;;;;;;;4.55;2.60;;;23.30;27.80;;;;;;5029997;28;20198;-57
2021/04/25 09:19:10;;;;;;;2.25;2.05;;;23.30;27.80;;;;;;5030398;28;20558;-57
2021/04/25 09:21:36;;;;;;;2.45;2.25;;;23.30;27.70;;;;;;5029923;28;20209;-57
2021/04/25 09:24:02;;;;;;;2.60;2.40;;;23.30;27.80;;;;;;5030426;28;20280;-57
2021/04/25 09:26:28;;;;;;;3.08;2.65;;;23.30;27.80;;;;;;5030747;28;20206;-57
2021/04/25 09:28:54;;;;;;;3.20;2.40;;;23.30;27.80;;;;;;5029661;28;20198;-57
2021/04/25 09:31:19;;;;;;;3.33;2.42;;;23.30;27.80;;;;;;5029790;28;20202;-58
2021/04/25 09:33:45;;;;;;;2.55;2.35;;;23.30;27.70;;;;;;5043784;28;20201;-57
2021/04/25 09:36:11;;;;;;;2.40;2.20;;;23.30;27.70;;;;;;5049959;28;20221;-56
2021/04/25 09:38:37;;;;;;;2.55;2.33;;;23.30;27.70;;;;;;5029467;28;20340;-57
2021/04/25 09:41:03;;;;;;;2.40;2.13;;;23.30;27.80;;;;;;5030341;28;20278;-57
2021/04/25 09:43:30;;;;;;;2.33;2.13;;;23.30;27.70;;;;;;5029914;28;20226;-57
2021/04/25 09:45:57;;;;;;;2.53;2.33;;;23.30;27.70;;;;;;5029422;28;20209;-57
2021/04/25 09:48:23;;;;;;;3.75;2.65;;;23.30;27.80;;;;;;5020927;28;20581;-57
2021/04/25 09:50:49;;;;;;;2.80;2.53;;;23.30;28.00;;;;;;5028235;28;20210;-57
2021/04/25 09:53:15;;;;;;;2.60;2.33;;;23.30;27.90;;;;;;5028903;28;20230;-57
2021/04/25 09:55:41;;;;;;;3.45;2.60;;;23.30;28.00;;;;;;5028838;28;20285;-57
2021/04/25 09:58:09;;;;;;;2.60;2.40;;;23.30;28.00;;;;;;5023422;28;20213;-57
2021/04/25 10:00:35;;;;;;;2.83;2.53;;;23.30;28.20;;;;;;5026835;28;20309;-55
2021/04/25 10:03:01;;;;;;;3.45;2.42;;;23.40;28.20;;;;;;5030170;28;20324;-57
2021/04/25 10:05:27;;;;;;;2.72;2.35;;;23.30;28.00;;;;;;5028459;28;20268;-57
2021/04/25 10:07:53;;;;;;;2.75;2.55;;;23.30;28.00;;;;;;5026006;28;20202;-57
2021/04/25 10:10:19;;;;;;;2.45;2.20;;;23.40;28.00;;;;;;5028805;28;20667;-57
2021/04/25 10:12:45;;;;;;;2.92;2.38;;;23.30;27.70;;;;;;5030147;28;20226;-55
2021/04/25 10:15:11;;;;;;;3.00;2.60;;;23.40;27.90;;;;;;5030885;28;20203;-55
2021/04/25 10:17:37;;;;;;;3.45;2.42;;;23.40;28.30;;;;;;5027734;28;20675;-57
2021/04/25 10:20:03;;;;;;;2.83;2.58;;;23.40;28.30;;;;;;5025925;28;20208;-58
2021/04/25 10:22:29;;;;;;;3.30;3.00;;;23.40;27.50;;;;;;5031985;28;20226;-58
2021/04/25 10:24:55;;;;;;;4.35;3.47;;;23.40;27.60;;;;;;5031230;28;20206;-58
2021/04/25 10:27:21;;;;;;;4.47;4.00;;;23.30;27.20;;;;;;5029646;28;20211;-57
2021/04/25 10:29:47;;;;;;;4.95;4.45;;;23.30;27.00;;;;;;5032762;28;20707;-58
2021/04/25 10:32:13;;;;;;;5.40;4.90;;;23.20;26.30;;;;;;5032546;28;20277;-57
2021/04/25 10:34:39;;;;;;;6.63;4.90;;;23.20;25.60;;;;;;5037325;28;20567;-58
2021/04/25 10:37:05;;;;;;;7.10;4.97;;;23.20;25.00;;;;;;5027479;28;20224;-57
2021/04/25 10:39:31;;;;;;;7.18;4.88;;;23.10;24.60;;;;;;5032358;28;20199;-56
2021/04/25 10:41:57;;;;;;;6.10;4.13;;;23.10;24.20;;;;;;5032109;28;20578;-55
2021/04/25 10:44:23;;;;;;;5.38;4.47;;;23.10;24.20;;;;;;5026117;28;20276;-55
2021/04/25 10:46:49;;;;;;;6.68;4.63;;;23.10;24.20;;;;;;5026636;28;20195;-55
2021/04/25 10:49:15;;;;;;;6.07;4.38;;;23.10;23.90;;;;;;5031710;28;20206;-56
2021/04/25 10:51:41;;;;;;;6.20;4.60;;;23.10;23.60;;;;;;5028893;28;20282;-55
2021/04/25 10:54:07;;;;;;;4.82;4.35;;;23.10;23.40;;;;;;5031734;28;20571;-58
2021/04/25 10:56:33;;;;;;;6.25;4.75;;;23.10;23.30;;;;;;5047001;28;20257;-57
2021/04/25 10:58:59;;;;;;;6.07;5.10;;;23.00;22.90;;;;;;5036202;28;20195;-56
2021/04/25 11:01:25;;;;;;;5.72;4.53;;;23.00;22.70;;;;;;5031426;28;20602;-53
2021/04/25 11:03:51;;;;;;;7.88;4.47;;;23.00;22.60;;;;;;5029127;28;20265;-58
2021/04/25 11:06:17;;;;;;;5.75;4.65;;;23.00;22.60;;;;;;5020517;28;20514;-58
2021/04/25 11:08:42;;;;;;;6.00;4.60;;;23.10;22.70;;;;;;5029542;28;20214;-59
2021/04/25 11:11:09;;;;;;;5.43;4.70;;;23.10;22.60;;;;;;5027520;28;20226;-59
2021/04/25 11:13:36;;;;;;;8.88;5.65;;;23.10;22.30;;;;;;5030916;28;20221;-53
2021/04/25 11:16:02;;;;;;;8.57;5.95;;;23.10;21.90;;;;;;5030940;28;20292;-56
2021/04/25 11:18:28;;;;;;;12.48;9.05;;;23.10;22.60;;;;;;5023847;28;20292;-57
2021/04/25 11:20:54;;;;;;;12.20;8.90;;;23.10;22.40;;;;;;5031970;28;20703;-57
2021/04/25 11:23:20;;;;;;;15.30;9.27;;;23.10;22.20;;;;;;5029783;28;20222;-55
2021/04/25 11:25:46;;;;;;;13.90;9.68;;;23.00;22.20;;;;;;5032134;28;20210;-60
2021/04/25 11:28:12;;;;;;;13.57;9.02;;;23.10;22.40;;;;;;5031309;28;20202;-60
2021/04/25 11:30:38;;;;;;;13.20;9.15;;;23.10;22.30;;;;;;5032430;28;20244;-59
2021/04/25 11:33:04;;;;;;;11.40;8.40;;;23.10;22.30;;;;;;5030879;28;20623;-60
2021/04/25 11:35:30;;;;;;;11.48;8.27;;;23.00;22.10;;;;;;5028525;28;20220;-60
2021/04/25 11:37:56;;;;;;;7.95;6.88;;;23.00;22.00;;;;;;5029409;28;20225;-60
2021/04/25 11:40:22;;;;;;;11.13;7.35;;;23.00;21.80;;;;;;5030704;28;20264;-59
2021/04/25 11:42:50;;;;;;;9.40;5.93;;;23.00;21.80;;;;;;5031202;28;20355;-59
2021/04/25 11:45:16;;;;;;;7.28;5.55;;;23.00;22.30;;;;;;5031562;28;20206;-60
2021/04/25 11:47:42;;;;;;;6.43;5.28;;;23.00;21.70;;;;;;5030251;28;20213;-59
2021/04/25 11:50:08;;;;;;;7.45;5.57;;;23.00;21.60;;;;;;5029554;28;20215;-60
2021/04/25 11:52:34;;;;;;;7.13;5.15;;;22.90;21.50;;;;;;5034192;28;20260;-60
2021/04/25 11:55:00;;;;;;;5.43;4.70;;;22.90;21.40;;;;;;5031329;28;20699;-59
2021/04/25 11:57:26;;;;;;;5.57;4.72;;;22.90;21.20;;;;;;5028857;28;20205;-60
2021/04/25 11:59:52;;;;;;;7.35;4.60;;;22.90;21.10;;;;;;5029596;28;20645;-60
2021/04/25 12:02:18;;;;;;;5.35;4.55;;;22.90;21.10;;;;;;5030760;28;20215;-60
2021/04/25 12:04:44;;;;;;;5.38;4.43;;;22.90;21.00;;;;;;5031636;28;20655;-60
2021/04/25 12:07:10;;;;;;;6.05;4.53;;;22.90;20.90;;;;;;5030288;28;20221;-60
2021/04/25 12:09:36;;;;;;;5.90;4.18;;;22.90;20.90;;;;;;5028630;28;20232;-60
2021/04/25 12:12:02;;;;;;;5.90;3.92;;;22.90;21.30;;;;;;5030074;28;20317;-59
2021/04/25 12:14:28;;;;;;;4.23;3.63;;;23.00;21.60;;;;;;5028145;28;20220;-60
2021/04/25 12:16:54;;;;;;;5.47;3.72;;;23.00;22.60;;;;;;5022883;28;20218;-60
2021/04/25 12:19:20;;;;;;;5.68;3.78;;;23.00;22.80;;;;;;5026501;28;20205;-60
2021/04/25 12:21:46;;;;;;;4.82;4.25;;;22.90;22.30;;;;;;5029314;28;20225;-60
2021/04/25 12:24:12;;;;;;;5.72;3.55;;;22.90;22.00;;;;;;5028960;28;20238;-61
2021/04/25 12:26:42;;;;;;;4.13;3.72;;;22.90;22.00;;;;;;5029551;28;20360;-61
2021/04/25 12:29:08;;;;;;;4.78;4.22;;;22.90;22.00;;;;;;5028779;28;20226;-61
2021/04/25 12:31:34;;;;;;;5.40;3.83;;;22.90;22.00;;;;;;5032785;28;20737;-61
2021/04/25 12:34:00;;;;;;;4.18;3.78;;;22.90;21.70;;;;;;5030972;28;20265;-61
2021/04/25 12:36:26;;;;;;;6.18;4.15;;;22.80;21.40;;;;;;5024835;28;20205;-60
2021/04/25 12:38:52;;;;;;;6.43;3.80;;;22.80;21.30;;;;;;5023832;28;20213;-61